createdAt,value
2023-09-15T00:01:41.404Z,18.64
2023-09-15T00:04:11.480Z,18.61
2023-09-15T00:06:39.298Z,18.72
2023-09-15T00:09:15.443Z,18.52
2023-09-15T00:11:43.962Z,18.48
2023-09-15T00:14:13.457Z,18.57
2023-09-15T00:16:42.611Z,18.55
2023-09-15T00:19:16.177Z,18.45
2023-09-15T00:21:44.888Z,18.41
2023-09-15T00:24:12.557Z,18.36
2023-09-15T00:26:40.470Z,18.29
2023-09-15T00:29:09.437Z,18.26
2023-09-15T00:31:37.631Z,18.23
2023-09-15T00:34:05.917Z,18.14
2023-09-15T00:36:34.085Z,18.19
2023-09-15T00:39:02.952Z,18.27
2023-09-15T00:41:30.354Z,18.12
2023-09-15T00:43:57.683Z,18.21
2023-09-15T00:46:25.808Z,18.29
2023-09-15T00:48:53.606Z,18.21
2023-09-15T00:51:22.871Z,18.20
2023-09-15T00:53:51.562Z,18.12
2023-09-15T00:56:19.376Z,18.20
2023-09-15T00:58:48.180Z,18.09
2023-09-15T01:01:18.142Z,18.06
2023-09-15T01:03:47.485Z,18.19
2023-09-15T01:06:17.373Z,18.25
2023-09-15T01:08:45.371Z,18.17
2023-09-15T01:11:13.081Z,18.08
2023-09-15T01:13:40.887Z,17.80
2023-09-15T01:16:17.564Z,17.84
2023-09-15T01:19:09.367Z,17.89
2023-09-15T01:21:43.180Z,17.95
2023-09-15T01:24:32.148Z,17.79
2023-09-15T01:27:15.020Z,17.85
2023-09-15T01:29:45.755Z,17.68
2023-09-15T01:32:15.849Z,17.66
2023-09-15T01:34:49.398Z,17.74
2023-09-15T01:37:18.547Z,18.00
2023-09-15T01:39:47.032Z,17.93
2023-09-15T01:42:14.730Z,17.81
2023-09-15T01:44:42.415Z,17.78
2023-09-15T01:49:40.367Z,17.77
2023-09-15T01:52:09.039Z,16.98
2023-09-15T01:54:37.157Z,17.27
2023-09-15T01:57:04.940Z,17.42
2023-09-15T01:59:34.095Z,17.47
2023-09-15T02:02:01.578Z,17.61
2023-09-15T02:04:29.383Z,17.69
2023-09-15T02:06:56.812Z,17.48
2023-09-15T02:09:24.187Z,17.40
2023-09-15T02:11:51.891Z,17.46
2023-09-15T02:14:19.323Z,17.46
2023-09-15T02:16:47.122Z,17.45
2023-09-15T02:19:15.229Z,17.40
2023-09-15T02:21:42.700Z,17.56
2023-09-15T02:24:10.411Z,17.51
2023-09-15T02:26:37.786Z,17.38
2023-09-15T02:29:05.180Z,17.37
2023-09-15T02:31:33.126Z,17.41
2023-09-15T02:34:01.454Z,17.36
2023-09-15T02:36:29.063Z,17.39
2023-09-15T02:38:56.747Z,17.46
2023-09-15T02:41:24.056Z,17.38
2023-09-15T02:43:51.514Z,17.37
2023-09-15T02:46:19.606Z,17.34
2023-09-15T02:48:47.354Z,17.24
2023-09-15T02:51:16.251Z,17.19
2023-09-15T02:53:43.941Z,17.16
2023-09-15T02:56:11.251Z,17.15
2023-09-15T02:58:39.246Z,17.05
2023-09-15T03:01:15.814Z,17.06
2023-09-15T03:03:43.776Z,16.97
2023-09-15T03:06:11.619Z,17.05
2023-09-15T03:08:39.157Z,16.99
2023-09-15T03:11:13.509Z,16.91
2023-09-15T03:13:42.712Z,17.02
2023-09-15T03:16:11.611Z,17.00
2023-09-15T03:18:39.320Z,16.88
2023-09-15T03:21:07.498Z,16.84
2023-09-15T03:23:35.147Z,16.69
2023-09-15T03:26:04.426Z,16.78
2023-09-15T03:28:35.008Z,16.80
2023-09-15T03:31:06.053Z,16.78
2023-09-15T03:33:33.990Z,16.81
2023-09-15T03:36:01.935Z,16.73
2023-09-15T03:38:29.932Z,16.72
2023-09-15T03:40:58.141Z,16.60
2023-09-15T03:43:25.965Z,16.48
2023-09-15T03:45:54.197Z,16.55
2023-09-15T03:48:22.402Z,16.50
2023-09-15T03:50:50.015Z,16.46
2023-09-15T03:53:18.422Z,16.32
2023-09-15T03:55:46.147Z,16.33
2023-09-15T03:58:13.852Z,16.27
2023-09-15T04:00:41.424Z,16.23
2023-09-15T04:03:09.806Z,16.14
2023-09-15T04:05:37.383Z,16.28
2023-09-15T04:08:04.880Z,16.30
2023-09-15T04:10:32.710Z,16.17
2023-09-15T04:13:00.209Z,16.08
2023-09-15T04:15:27.862Z,16.18
2023-09-15T04:17:56.894Z,16.15
2023-09-15T04:20:35.213Z,16.11
2023-09-15T04:23:13.296Z,16.14
2023-09-15T04:25:40.911Z,16.19
2023-09-15T04:28:09.350Z,16.13
2023-09-15T04:30:37.712Z,16.16
2023-09-15T04:33:05.675Z,16.18
2023-09-15T04:35:33.256Z,16.07
2023-09-15T04:38:01.283Z,16.14
2023-09-15T04:40:29.201Z,16.14
2023-09-15T04:42:56.580Z,16.20
2023-09-15T04:45:25.616Z,16.07
2023-09-15T04:47:53.639Z,15.99
2023-09-15T04:50:21.160Z,15.96
2023-09-15T04:52:49.115Z,16.08
2023-09-15T04:55:16.861Z,15.92
2023-09-15T04:57:44.345Z,15.94
2023-09-15T05:00:25.018Z,15.98
2023-09-15T05:02:53.160Z,16.14
2023-09-15T05:05:21.318Z,16.20
2023-09-15T05:07:48.807Z,16.15
2023-09-15T05:10:16.333Z,16.12
2023-09-15T05:12:44.405Z,16.15
2023-09-15T05:15:12.260Z,16.25
2023-09-15T05:17:40.089Z,16.24
2023-09-15T05:20:08.604Z,16.09
2023-09-15T05:22:36.131Z,16.16
2023-09-15T05:25:06.221Z,16.31
2023-09-15T05:27:34.082Z,16.48
2023-09-15T05:30:01.416Z,16.25
2023-09-15T05:32:31.203Z,16.36
2023-09-15T05:34:58.998Z,16.41
2023-09-15T05:37:26.711Z,16.62
2023-09-15T05:39:54.076Z,16.77
2023-09-15T05:42:22.659Z,16.90
2023-09-15T05:44:50.211Z,16.74
2023-09-15T05:47:17.727Z,16.71
2023-09-15T05:49:45.429Z,16.74
2023-09-15T05:52:12.816Z,16.67
2023-09-15T05:54:40.263Z,16.91
2023-09-15T05:57:08.281Z,17.19
2023-09-15T05:59:35.836Z,17.44
2023-09-15T06:02:03.305Z,17.10
2023-09-15T06:04:31.073Z,17.42
2023-09-15T06:06:58.680Z,17.59
2023-09-15T06:09:26.045Z,17.50
2023-09-15T06:11:53.985Z,17.53
2023-09-15T06:14:21.527Z,17.68
2023-09-15T06:16:49.092Z,18.14
2023-09-15T06:19:17.064Z,17.82
2023-09-15T06:21:44.521Z,18.24
2023-09-15T06:24:12.199Z,18.46
2023-09-15T06:26:39.840Z,18.49
2023-09-15T06:29:07.543Z,18.80
2023-09-15T06:31:35.023Z,19.07
2023-09-15T06:34:02.823Z,19.28
2023-09-15T06:36:30.421Z,19.26
2023-09-15T06:38:57.797Z,19.71
2023-09-15T06:41:25.499Z,19.74
2023-09-15T06:43:52.860Z,19.86
2023-09-15T06:46:23.514Z,19.99
2023-09-15T06:48:51.899Z,20.20
2023-09-15T06:51:19.539Z,20.23
2023-09-15T06:53:47.201Z,20.39
2023-09-15T06:56:14.945Z,20.56
2023-09-15T06:58:42.269Z,20.76
2023-09-15T07:01:10.115Z,20.85
2023-09-15T07:03:37.783Z,21.17
2023-09-15T07:06:05.175Z,21.05
2023-09-15T07:08:32.646Z,21.18
2023-09-15T07:11:00.467Z,21.07
2023-09-15T07:13:27.910Z,21.31
2023-09-15T07:15:55.382Z,21.60
2023-09-15T07:18:23.100Z,21.36
2023-09-15T07:20:50.798Z,21.42
2023-09-15T07:23:18.297Z,21.53
2023-09-15T07:25:50.180Z,21.65
2023-09-15T07:28:17.648Z,21.49
2023-09-15T07:30:45.697Z,21.61
2023-09-15T07:33:13.208Z,21.59
2023-09-15T07:35:40.589Z,21.74
2023-09-15T07:38:08.797Z,21.73
2023-09-15T07:40:36.463Z,21.94
2023-09-15T07:43:04.446Z,22.19
2023-09-15T07:45:32.493Z,22.13
2023-09-15T07:48:00.234Z,22.48
2023-09-15T07:50:29.008Z,22.60
2023-09-15T07:52:56.876Z,22.56
2023-09-15T07:55:24.747Z,22.85
2023-09-15T07:57:52.197Z,23.08
2023-09-15T08:00:20.509Z,23.25
2023-09-15T08:02:48.729Z,23.34
2023-09-15T08:05:16.436Z,23.49
2023-09-15T08:07:48.425Z,23.06
2023-09-15T08:10:19.246Z,23.21
2023-09-15T08:12:46.710Z,23.34
2023-09-15T08:15:15.593Z,23.44
2023-09-15T08:17:43.587Z,23.46
2023-09-15T08:20:12.624Z,23.47
2023-09-15T08:22:40.165Z,23.63
2023-09-15T08:25:09.160Z,23.83
2023-09-15T08:27:36.525Z,23.81
2023-09-15T08:30:04.837Z,24.16
2023-09-15T08:32:35.549Z,24.26
2023-09-15T08:35:05.274Z,24.59
2023-09-15T08:37:33.250Z,24.70
2023-09-15T08:40:02.056Z,24.69
2023-09-15T08:42:30.683Z,24.72
2023-09-15T08:44:59.400Z,24.76
2023-09-15T08:47:33.301Z,24.98
2023-09-15T08:50:05.234Z,25.09
2023-09-15T08:52:33.553Z,25.29
2023-09-15T08:55:03.289Z,25.26
2023-09-15T08:57:32.079Z,25.00
2023-09-15T09:00:00.699Z,25.16
2023-09-15T09:02:29.941Z,25.07
2023-09-15T09:04:57.970Z,25.34
2023-09-15T09:07:26.172Z,25.48
2023-09-15T09:09:55.774Z,25.34
2023-09-15T09:12:23.239Z,25.77
2023-09-15T09:14:56.329Z,25.94
2023-09-15T09:17:24.742Z,25.80
2023-09-15T09:19:52.157Z,25.86
2023-09-15T09:22:20.676Z,25.85
2023-09-15T09:24:58.802Z,25.87
2023-09-15T09:27:35.808Z,26.20
2023-09-15T09:30:04.884Z,26.39
2023-09-15T09:32:32.350Z,26.76
2023-09-15T09:34:59.982Z,26.83
2023-09-15T09:37:27.967Z,26.52
2023-09-15T09:39:55.656Z,26.02
2023-09-15T09:42:25.410Z,26.38
2023-09-15T09:44:54.272Z,26.18
2023-09-15T09:47:23.487Z,26.06
2023-09-15T09:49:53.356Z,25.99
2023-09-15T09:52:23.198Z,25.85
2023-09-15T09:54:51.963Z,25.99
2023-09-15T09:57:21.263Z,26.12
2023-09-15T09:59:49.811Z,26.21
2023-09-15T10:02:17.363Z,26.19
2023-09-15T10:04:45.156Z,26.45
2023-09-15T10:07:13.243Z,26.69
2023-09-15T10:09:40.906Z,26.60
2023-09-15T10:12:09.375Z,26.58
2023-09-15T10:14:37.050Z,26.69
2023-09-15T10:17:04.913Z,26.52
2023-09-15T10:19:33.296Z,26.86
2023-09-15T10:22:01.604Z,26.71
2023-09-15T10:24:29.117Z,26.68
2023-09-15T10:26:56.883Z,26.58
2023-09-15T10:29:31.843Z,26.94
2023-09-15T10:32:04.779Z,27.05
2023-09-15T10:34:33.770Z,27.06
2023-09-15T10:37:03.642Z,27.00
2023-09-15T10:39:40.116Z,27.18
2023-09-15T10:42:09.608Z,27.22
2023-09-15T10:44:37.373Z,27.23
2023-09-15T10:47:17.096Z,27.16
2023-09-15T10:49:55.150Z,27.29
2023-09-15T10:52:36.938Z,26.97
2023-09-15T10:55:05.429Z,26.95
2023-09-15T10:57:37.532Z,27.09
2023-09-15T11:00:08.165Z,27.54
2023-09-15T11:02:40.869Z,27.84
2023-09-15T11:05:09.366Z,28.33
2023-09-15T11:07:37.577Z,28.65
2023-09-15T11:10:07.265Z,28.51
2023-09-15T11:12:35.166Z,28.24
2023-09-15T11:15:03.447Z,28.48
2023-09-15T11:17:31.825Z,28.29
2023-09-15T11:20:05.476Z,28.13
2023-09-15T11:22:35.387Z,28.07
2023-09-15T11:25:14.916Z,27.92
2023-09-15T11:27:48.103Z,27.93
2023-09-15T11:30:16.323Z,28.22
2023-09-15T11:32:43.914Z,28.51
2023-09-15T11:35:13.688Z,28.32
2023-09-15T11:37:43.219Z,28.25
2023-09-15T11:40:21.090Z,28.19
2023-09-15T11:42:59.480Z,28.12
2023-09-15T11:45:29.854Z,28.66
2023-09-15T11:48:00.790Z,28.58
2023-09-15T11:50:30.192Z,28.57
2023-09-15T11:52:58.161Z,28.94
2023-09-15T11:55:26.390Z,29.11
2023-09-15T11:57:54.359Z,28.94
2023-09-15T12:00:25.071Z,28.57
2023-09-15T12:02:54.692Z,28.70
2023-09-15T12:05:23.499Z,28.73
2023-09-15T12:07:51.593Z,28.73
2023-09-15T12:10:22.731Z,28.37
2023-09-15T12:12:50.759Z,28.06
2023-09-15T12:15:18.888Z,28.06
2023-09-15T12:17:46.882Z,28.14
2023-09-15T12:20:14.489Z,28.15
2023-09-15T12:22:44.152Z,28.18
2023-09-15T12:25:17.890Z,28.20
2023-09-15T12:27:45.759Z,28.13
2023-09-15T12:30:14.092Z,28.39
2023-09-15T12:32:41.433Z,28.26
2023-09-15T12:35:13.685Z,27.94
2023-09-15T12:37:44.794Z,27.91
2023-09-15T12:40:14.427Z,27.88
2023-09-15T12:42:42.663Z,27.99
2023-09-15T12:45:10.798Z,28.17
2023-09-15T12:47:41.100Z,28.21
2023-09-15T12:50:08.751Z,28.68
2023-09-15T12:52:36.831Z,28.38
2023-09-15T12:55:05.367Z,28.31
2023-09-15T12:57:32.870Z,28.78
2023-09-15T13:00:00.272Z,28.60
2023-09-15T13:02:29.144Z,28.57
2023-09-15T13:04:56.826Z,28.83
2023-09-15T13:07:24.361Z,28.95
2023-09-15T13:09:52.186Z,28.93
2023-09-15T13:12:19.624Z,29.06
2023-09-15T13:14:48.625Z,29.28
2023-09-15T13:17:16.432Z,29.00
2023-09-15T13:19:43.916Z,29.46
2023-09-15T13:22:11.269Z,29.86
2023-09-15T13:24:38.991Z,29.83
2023-09-15T13:27:06.559Z,29.85
2023-09-15T13:29:33.964Z,29.51
2023-09-15T13:32:01.640Z,29.15
2023-09-15T13:34:29.089Z,28.96
2023-09-15T13:36:56.561Z,29.15
2023-09-15T13:39:24.759Z,28.89
2023-09-15T13:41:52.277Z,28.52
2023-09-15T13:44:19.663Z,27.94
2023-09-15T13:46:47.454Z,28.20
2023-09-15T13:49:15.157Z,28.53
2023-09-15T13:51:43.462Z,29.08
2023-09-15T13:54:12.084Z,29.40
2023-09-15T13:56:39.592Z,29.31
2023-09-15T13:59:07.133Z,29.81
2023-09-15T14:01:37.756Z,30.14
2023-09-15T14:04:08.414Z,30.21
2023-09-15T14:06:35.998Z,30.29
2023-09-15T14:09:03.467Z,30.46
2023-09-15T14:11:31.338Z,30.22
2023-09-15T14:13:58.661Z,30.15
2023-09-15T14:16:26.527Z,29.55
2023-09-15T14:18:54.340Z,29.05
2023-09-15T14:21:21.829Z,29.25
2023-09-15T14:23:49.370Z,29.93
2023-09-15T14:26:17.186Z,30.58
2023-09-15T14:28:44.562Z,30.01
2023-09-15T14:31:11.928Z,30.68
2023-09-15T14:33:39.663Z,31.01
2023-09-15T14:36:07.242Z,31.65
2023-09-15T14:38:35.066Z,32.19
2023-09-15T14:41:02.811Z,31.18
2023-09-15T14:43:30.157Z,30.61
2023-09-15T14:45:57.594Z,29.95
2023-09-15T14:48:26.251Z,29.54
2023-09-15T14:50:54.888Z,29.20
2023-09-15T14:53:22.340Z,29.01
2023-09-15T14:55:50.049Z,28.61
2023-09-15T14:58:17.474Z,28.36
2023-09-15T15:00:44.943Z,28.31
2023-09-15T15:03:12.753Z,27.97
2023-09-15T15:05:40.222Z,27.93
2023-09-15T15:08:07.650Z,27.69
2023-09-15T15:10:35.438Z,27.69
2023-09-15T15:13:03.060Z,27.65
2023-09-15T15:15:31.204Z,27.47
2023-09-15T15:17:59.223Z,27.33
2023-09-15T15:20:26.692Z,27.10
2023-09-15T15:22:54.095Z,26.98
2023-09-15T15:25:22.187Z,26.74
2023-09-15T15:27:49.588Z,26.66
2023-09-15T15:30:17.057Z,26.85
2023-09-15T15:32:44.961Z,26.81
2023-09-15T15:35:12.415Z,26.56
2023-09-15T15:37:42.021Z,26.73
2023-09-15T15:40:10.975Z,26.65
2023-09-15T15:42:38.574Z,26.39
2023-09-15T15:45:06.516Z,26.53
2023-09-15T15:47:34.357Z,26.46
2023-09-15T15:50:01.802Z,26.27
2023-09-15T15:52:29.348Z,26.31
2023-09-15T15:54:57.215Z,26.20
2023-09-15T15:57:24.610Z,25.96
2023-09-15T15:59:52.011Z,26.02
2023-09-15T16:02:19.978Z,25.83
2023-09-15T16:04:48.800Z,25.84
2023-09-15T16:07:16.313Z,25.54
2023-09-15T16:09:43.757Z,25.69
2023-09-15T16:12:11.510Z,25.63
2023-09-15T16:14:39.185Z,25.85
2023-09-15T16:17:06.809Z,25.52
2023-09-15T16:19:34.679Z,25.54
2023-09-15T16:22:04.758Z,25.62
2023-09-15T16:24:32.449Z,25.49
2023-09-15T16:27:00.147Z,25.35
2023-09-15T16:33:40.897Z,25.51
2023-09-15T16:36:08.689Z,25.51
2023-09-15T16:38:36.098Z,24.97
2023-09-15T16:41:03.756Z,24.74
2023-09-15T16:43:33.170Z,24.74
2023-09-15T16:46:00.937Z,24.68
2023-09-15T16:48:31.163Z,24.51
2023-09-15T16:50:59.522Z,24.61
2023-09-15T16:53:27.235Z,24.56
2023-09-15T16:55:55.689Z,24.38
2023-09-15T16:58:23.505Z,24.40
2023-09-15T17:00:55.628Z,24.39
2023-09-15T17:03:23.782Z,24.27
2023-09-15T17:05:51.456Z,24.05
2023-09-15T17:08:20.255Z,23.91
2023-09-15T17:10:48.320Z,23.87
2023-09-15T17:13:15.680Z,23.52
2023-09-15T17:15:43.520Z,23.42
2023-09-15T17:18:11.416Z,23.61
2023-09-15T17:20:38.837Z,23.60
2023-09-15T17:23:06.177Z,23.60
2023-09-15T17:25:33.853Z,23.58
2023-09-15T17:28:03.862Z,23.46
2023-09-15T17:30:31.220Z,23.42
2023-09-15T17:32:59.293Z,23.61
2023-09-15T17:35:26.957Z,23.69
2023-09-15T17:37:54.576Z,23.45
2023-09-15T17:40:22.313Z,23.37
2023-09-15T17:42:49.875Z,23.29
2023-09-15T17:45:24.947Z,23.00
2023-09-15T17:47:52.763Z,23.02
2023-09-15T17:50:20.491Z,23.06
2023-09-15T17:52:47.902Z,23.12
2023-09-15T17:55:17.518Z,22.99
2023-09-15T17:57:48.073Z,22.83
2023-09-15T18:00:18.213Z,22.85
2023-09-15T18:02:47.185Z,22.79
2023-09-15T18:05:15.036Z,22.66
2023-09-15T18:07:42.513Z,22.59
2023-09-15T18:10:10.582Z,22.32
2023-09-15T18:12:39.124Z,22.15
2023-09-15T18:15:11.816Z,22.15
2023-09-15T18:17:39.847Z,22.25
2023-09-15T18:20:10.232Z,22.20
2023-09-15T18:22:37.638Z,22.27
2023-09-15T18:25:06.756Z,22.17
2023-09-15T18:27:34.783Z,22.08
2023-09-15T18:30:02.843Z,22.12
2023-09-15T18:32:32.829Z,22.02
2023-09-15T18:35:00.862Z,21.97
2023-09-15T18:37:28.317Z,21.93
2023-09-15T18:39:56.036Z,21.89
2023-09-15T18:42:23.482Z,21.86
2023-09-15T18:44:51.772Z,21.85
2023-09-15T18:47:19.548Z,22.03
2023-09-15T18:49:47.163Z,21.86
2023-09-15T18:52:15.527Z,21.69
2023-09-15T18:54:43.309Z,21.67
2023-09-15T18:57:10.737Z,21.73
2023-09-15T19:02:06.710Z,21.09
2023-09-15T19:04:34.316Z,21.25
2023-09-15T19:07:01.756Z,21.22
2023-09-15T19:09:29.574Z,21.22
2023-09-15T19:11:58.164Z,21.22
2023-09-15T19:14:25.797Z,21.33
2023-09-15T19:16:54.621Z,21.35
2023-09-15T19:19:22.396Z,21.02
2023-09-15T19:21:50.084Z,21.07
2023-09-15T19:24:18.084Z,21.29
2023-09-15T19:26:45.966Z,21.05
2023-09-15T19:29:13.586Z,21.04
2023-09-15T19:31:41.416Z,20.94
2023-09-15T19:34:08.953Z,21.19
2023-09-15T19:36:36.476Z,21.12
2023-09-15T19:39:05.052Z,20.97
2023-09-15T19:41:32.824Z,20.85
2023-09-15T19:44:00.401Z,20.89
2023-09-15T19:46:28.416Z,21.02
2023-09-15T19:48:56.154Z,21.22
2023-09-15T19:51:28.482Z,20.98
2023-09-15T19:53:56.261Z,20.65
2023-09-15T19:56:23.655Z,20.93
2023-09-15T19:58:51.498Z,20.94
2023-09-15T20:01:19.379Z,20.94
2023-09-15T20:03:48.174Z,21.01
2023-09-15T20:06:15.657Z,20.97
2023-09-15T20:08:43.052Z,20.83
2023-09-15T20:11:10.817Z,20.66
2023-09-15T20:13:38.994Z,20.72
2023-09-15T20:16:17.561Z,20.80
2023-09-15T20:18:45.455Z,20.54
2023-09-15T20:21:12.952Z,20.48
2023-09-15T20:23:40.757Z,20.58
2023-09-15T20:26:08.564Z,20.71
2023-09-15T20:28:36.034Z,20.72
2023-09-15T20:31:03.637Z,20.21
2023-09-15T20:33:31.696Z,20.10
2023-09-15T20:35:59.871Z,20.08
2023-09-15T20:38:27.609Z,20.07
2023-09-15T20:40:56.384Z,20.27
2023-09-15T20:43:24.276Z,20.46
2023-09-15T20:45:51.777Z,20.35
2023-09-15T20:48:19.725Z,20.06
2023-09-15T20:50:50.815Z,20.07
2023-09-15T20:53:18.272Z,20.05
2023-09-15T20:55:46.178Z,20.08
2023-09-15T20:58:16.061Z,19.95
2023-09-15T21:00:46.413Z,19.66
2023-09-15T21:03:14.322Z,19.48
2023-09-15T21:05:41.754Z,19.42
2023-09-15T21:08:09.290Z,19.56
2023-09-15T21:10:36.988Z,19.39
2023-09-15T21:13:04.714Z,19.56
2023-09-15T21:15:32.227Z,19.59
2023-09-15T21:17:59.993Z,19.65
2023-09-15T21:20:27.925Z,19.76
2023-09-15T21:22:57.827Z,19.82
2023-09-15T21:25:25.980Z,19.47
2023-09-15T21:27:53.410Z,19.14
2023-09-15T21:30:20.944Z,19.21
2023-09-15T21:32:48.805Z,19.21
2023-09-15T21:35:16.476Z,19.29
2023-09-15T21:37:44.030Z,19.23
2023-09-15T21:40:11.892Z,19.28
2023-09-15T21:42:39.887Z,19.46
2023-09-15T21:45:07.890Z,19.52
2023-09-15T21:47:35.986Z,19.65
2023-09-15T21:50:03.513Z,19.25
2023-09-15T21:52:30.898Z,19.26
2023-09-15T21:54:58.696Z,19.42
2023-09-15T21:57:26.165Z,19.33
2023-09-15T21:59:53.619Z,19.40
2023-09-15T22:02:21.989Z,19.54
2023-09-15T22:04:49.855Z,19.56
2023-09-15T22:07:17.283Z,19.72
2023-09-15T22:09:44.870Z,19.67
2023-09-15T22:12:12.829Z,19.62
2023-09-15T22:14:40.212Z,19.49
2023-09-15T22:17:07.659Z,19.41
2023-09-15T22:19:36.335Z,19.52
2023-09-15T22:22:05.694Z,19.60
2023-09-15T22:24:33.134Z,19.46
2023-09-15T22:27:00.835Z,19.54
2023-09-15T22:29:28.220Z,19.52
2023-09-15T22:31:55.792Z,19.35
2023-09-15T22:34:23.705Z,19.21
2023-09-15T22:36:51.926Z,18.82
2023-09-15T22:39:19.410Z,18.83
2023-09-15T22:41:46.987Z,18.77
2023-09-15T22:44:14.239Z,18.65
2023-09-15T22:46:41.637Z,18.83
2023-09-15T22:49:13.442Z,18.79
2023-09-15T22:51:42.123Z,18.58
2023-09-15T22:54:09.915Z,18.48
2023-09-15T22:56:37.152Z,18.76
2023-09-15T22:59:04.964Z,18.83
2023-09-15T23:01:32.726Z,18.90
2023-09-15T23:04:00.142Z,18.78
2023-09-15T23:06:28.676Z,19.17
2023-09-15T23:08:56.323Z,18.84
2023-09-15T23:11:23.739Z,18.59
2023-09-15T23:13:50.982Z,18.41
2023-09-15T23:16:18.713Z,18.39
2023-09-15T23:18:46.102Z,18.42
2023-09-15T23:21:16.344Z,18.26
2023-09-15T23:23:43.925Z,18.46
2023-09-15T23:26:11.263Z,18.42
2023-09-15T23:28:39.721Z,18.20
2023-09-15T23:31:07.894Z,18.13
2023-09-15T23:33:35.860Z,18.13
2023-09-15T23:36:06.661Z,17.81
2023-09-15T23:38:37.544Z,17.56
2023-09-15T23:41:05.233Z,17.35
2023-09-15T23:43:33.370Z,17.08
2023-09-15T23:46:01.097Z,17.19
2023-09-15T23:48:28.679Z,17.40
2023-09-15T23:50:57.445Z,17.53
2023-09-15T23:53:24.922Z,17.55
2023-09-15T23:55:52.652Z,17.63
2023-09-15T23:58:19.952Z,17.66
